createdAt,value
2017-09-13T00:00:11.871Z,11.04
2017-09-13T00:01:33.696Z,11.14
2017-09-13T00:02:55.873Z,11.11
2017-09-13T00:04:17.623Z,11.1
2017-09-13T00:05:39.544Z,10.94
2017-09-13T00:07:02.035Z,10.97
2017-09-13T00:08:23.890Z,10.96
2017-09-13T00:09:46.029Z,10.96
2017-09-13T00:11:08.163Z,10.99
2017-09-13T00:12:30.313Z,11.06
2017-09-13T00:13:52.473Z,11.17
2017-09-13T00:15:14.884Z,11.27
2017-09-13T00:16:36.704Z,11.25
2017-09-13T00:17:58.824Z,11.4
2017-09-13T00:19:19.969Z,11.37
2017-09-13T00:20:42.438Z,11.36
2017-09-13T00:22:04.564Z,11.36
2017-09-13T00:23:26.349Z,11.4
2017-09-13T00:24:47.503Z,11.37
2017-09-13T00:26:09.573Z,11.43
2017-09-13T00:27:31.689Z,11.36
2017-09-13T00:28:54.254Z,11.36
2017-09-13T00:30:16.411Z,11.52
2017-09-13T00:31:38.895Z,11.46
2017-09-13T00:33:00.744Z,11.51
2017-09-13T00:34:22.564Z,11.64
2017-09-13T00:35:45.044Z,11.61
2017-09-13T00:37:07.103Z,11.76
2017-09-13T00:38:28.924Z,11.65
2017-09-13T00:39:51.397Z,11.69
2017-09-13T00:41:13.534Z,11.75
2017-09-13T00:42:36.255Z,11.76
2017-09-13T00:43:58.402Z,11.75
2017-09-13T00:45:20.221Z,11.78
2017-09-13T00:46:42.726Z,11.8
2017-09-13T00:48:05.125Z,11.73
2017-09-13T00:49:27.254Z,11.85
2017-09-13T00:50:49.685Z,11.86
2017-09-13T00:52:11.518Z,11.88
2017-09-13T00:53:33.956Z,11.94
2017-09-13T00:54:55.773Z,11.88
2017-09-13T00:56:17.644Z,11.73
2017-09-13T00:57:39.564Z,11.78
2017-09-13T00:59:01.995Z,11.76
2017-09-13T01:00:23.932Z,11.72
2017-09-13T01:01:46.065Z,11.64
2017-09-13T01:03:08.209Z,11.7
2017-09-13T01:04:30.661Z,11.65
2017-09-13T01:05:51.845Z,11.64
2017-09-13T01:07:14.334Z,11.57
2017-09-13T01:08:36.157Z,11.57
2017-09-13T01:09:58.603Z,11.61
2017-09-13T01:11:20.084Z,11.62
2017-09-13T01:12:41.881Z,11.6
2017-09-13T01:14:03.375Z,11.61
2017-09-13T01:15:25.525Z,11.6
2017-09-13T01:16:47.335Z,11.61
2017-09-13T01:18:09.456Z,11.76
2017-09-13T01:19:31.582Z,11.8
2017-09-13T01:20:53.998Z,11.82
2017-09-13T01:22:15.844Z,11.78
2017-09-13T01:23:37.662Z,11.9
2017-09-13T01:24:59.801Z,11.96
2017-09-13T01:26:21.535Z,11.96
2017-09-13T01:27:43.659Z,11.98
2017-09-13T01:29:05.227Z,11.96
2017-09-13T01:30:27.355Z,11.91
2017-09-13T01:31:49.125Z,11.98
2017-09-13T01:33:10.944Z,12.02
2017-09-13T01:34:32.775Z,12.02
2017-09-13T01:35:54.640Z,12.12
2017-09-13T01:37:17.030Z,12.07
2017-09-13T01:38:39.392Z,12.2
2017-09-13T01:40:00.884Z,12.1
2017-09-13T01:41:22.745Z,12.19
2017-09-13T01:42:44.259Z,12.23
2017-09-13T01:44:06.133Z,12.23
2017-09-13T01:45:27.940Z,12.24
2017-09-13T01:46:50.379Z,12.29
2017-09-13T01:48:12.456Z,12.27
2017-09-13T01:49:34.361Z,12.29
2017-09-13T01:50:56.175Z,12.32
2017-09-13T01:52:18.306Z,12.31
2017-09-13T01:53:39.709Z,12.35
2017-09-13T01:55:01.836Z,12.45
2017-09-13T01:56:23.978Z,12.41
2017-09-13T01:57:46.126Z,12.39
2017-09-13T01:59:08.497Z,12.32
2017-09-13T02:00:30.735Z,12.52
2017-09-13T02:01:52.555Z,12.53
2017-09-13T02:03:14.388Z,12.49
2017-09-13T02:04:36.447Z,12.5
2017-09-13T02:05:58.650Z,12.52
2017-09-13T02:07:20.788Z,12.56
2017-09-13T02:08:42.917Z,12.53
2017-09-13T02:10:05.292Z,12.6
2017-09-13T02:11:27.405Z,12.57
2017-09-13T02:12:48.897Z,12.57
2017-09-13T02:14:11.348Z,12.74
2017-09-13T02:15:33.529Z,12.74
2017-09-13T02:16:55.995Z,12.64
2017-09-13T02:18:18.125Z,12.68
2017-09-13T02:19:39.945Z,12.7
2017-09-13T02:21:01.994Z,12.64
2017-09-13T02:22:23.814Z,12.65
2017-09-13T02:23:45.311Z,12.77
2017-09-13T02:25:07.105Z,12.72
2017-09-13T02:26:28.833Z,12.77
2017-09-13T02:27:50.218Z,12.72
2017-09-13T02:29:12.042Z,12.74
2017-09-13T02:30:34.255Z,12.82
2017-09-13T02:31:56.520Z,12.83
2017-09-13T02:33:18.984Z,12.86
2017-09-13T02:34:41.124Z,12.86
2017-09-13T02:36:02.605Z,12.86
2017-09-13T02:37:25.394Z,12.87
2017-09-13T02:38:47.555Z,12.87
2017-09-13T02:40:09.375Z,12.86
2017-09-13T02:41:31.179Z,12.87
2017-09-13T02:42:53.678Z,12.83
2017-09-13T02:44:15.911Z,12.87
2017-09-13T02:45:38.034Z,12.87
2017-09-13T02:46:59.924Z,12.82
2017-09-13T02:48:21.409Z,12.83
2017-09-13T02:49:43.548Z,12.82
2017-09-13T02:51:06.079Z,12.82
2017-09-13T02:52:28.235Z,12.78
2017-09-13T02:53:50.687Z,12.79
2017-09-13T02:55:12.802Z,12.71
2017-09-13T02:56:34.281Z,12.77
2017-09-13T02:57:56.797Z,12.71
2017-09-13T02:59:19.183Z,12.72
2017-09-13T03:00:41.636Z,12.75
2017-09-13T03:02:04.092Z,12.72
2017-09-13T03:03:25.884Z,12.64
2017-09-13T03:04:48.281Z,12.7
2017-09-13T03:06:10.523Z,12.67
2017-09-13T03:07:32.652Z,12.65
2017-09-13T03:08:54.783Z,12.75
2017-09-13T03:10:16.580Z,12.62
2017-09-13T03:11:38.400Z,12.68
2017-09-13T03:13:00.295Z,12.59
2017-09-13T03:14:22.429Z,12.64
2017-09-13T03:15:44.879Z,12.59
2017-09-13T03:17:07.020Z,12.59
2017-09-13T03:18:29.163Z,12.54
2017-09-13T03:19:51.363Z,12.52
2017-09-13T03:21:13.755Z,12.5
2017-09-13T03:22:35.863Z,12.52
2017-09-13T03:23:58.435Z,12.56
2017-09-13T03:25:19.943Z,12.54
2017-09-13T03:26:42.699Z,12.57
2017-09-13T03:28:04.590Z,12.54
2017-09-13T03:29:26.405Z,12.52
2017-09-13T03:30:48.311Z,12.5
2017-09-13T03:32:10.919Z,12.49
2017-09-13T03:33:33.069Z,12.54
2017-09-13T03:34:54.572Z,12.52
2017-09-13T03:36:16.384Z,12.49
2017-09-13T03:37:37.992Z,12.34
2017-09-13T03:38:59.479Z,12.49
2017-09-13T03:40:20.981Z,12.39
2017-09-13T03:41:42.807Z,12.37
2017-09-13T03:43:04.321Z,12.38
2017-09-13T03:44:26.457Z,12.34
2017-09-13T03:45:47.944Z,12.31
2017-09-13T03:47:10.413Z,12.42
2017-09-13T03:48:32.912Z,12.34
2017-09-13T03:49:54.500Z,12.28
2017-09-13T03:51:16.633Z,12.31
2017-09-13T03:52:38.434Z,12.35
2017-09-13T03:54:00.534Z,12.31
2017-09-13T03:55:22.765Z,12.39
2017-09-13T03:56:44.903Z,12.35
2017-09-13T03:58:07.063Z,12.29
2017-09-13T03:59:28.788Z,12.31
2017-09-13T04:00:50.277Z,12.28
2017-09-13T04:02:11.768Z,12.28
2017-09-13T04:03:33.265Z,12.29
2017-09-13T04:04:55.970Z,12.23
2017-09-13T04:06:17.810Z,12.19
2017-09-13T04:07:40.275Z,12.17
2017-09-13T04:09:02.462Z,12.23
2017-09-13T04:10:24.972Z,12.16
2017-09-13T04:11:47.238Z,12.14
2017-09-13T04:13:09.373Z,12.14
2017-09-13T04:14:31.512Z,12.17
2017-09-13T04:15:53.992Z,12.13
2017-09-13T04:17:16.511Z,12.16
2017-09-13T04:18:38.656Z,12.19
2017-09-13T04:20:01.109Z,12.09
2017-09-13T04:21:23.595Z,12.09
2017-09-13T04:22:46.065Z,12.1
2017-09-13T04:24:07.899Z,12.1
2017-09-13T04:25:30.084Z,12.07
2017-09-13T04:26:52.510Z,12.1
2017-09-13T04:28:14.327Z,12.07
2017-09-13T04:29:36.303Z,12.14
2017-09-13T04:30:58.771Z,12.1
2017-09-13T04:32:20.819Z,12.1
2017-09-13T04:33:42.653Z,12.07
2017-09-13T04:35:04.562Z,12.14
2017-09-13T04:36:26.444Z,12.07
2017-09-13T04:37:48.841Z,12.12
2017-09-13T04:39:10.660Z,12.12
2017-09-13T04:40:32.497Z,12.13
2017-09-13T04:41:54.694Z,12.1
2017-09-13T04:43:17.467Z,12.12
2017-09-13T04:44:39.927Z,12.16
2017-09-13T04:46:01.738Z,12.1
2017-09-13T04:47:23.235Z,12.01
2017-09-13T04:48:45.353Z,12.01
2017-09-13T04:50:07.615Z,11.96
2017-09-13T04:51:29.103Z,12.05
2017-09-13T04:52:51.580Z,12.04
2017-09-13T04:54:14.063Z,11.9
2017-09-13T04:55:35.562Z,11.98
2017-09-13T04:56:58.014Z,11.99
2017-09-13T04:58:19.822Z,11.96
2017-09-13T04:59:42.535Z,11.96
2017-09-13T05:01:04.338Z,11.94
2017-09-13T05:02:26.503Z,12.04
2017-09-13T05:03:48.634Z,11.95
2017-09-13T05:05:11.205Z,11.96
2017-09-13T05:06:33.681Z,11.91
2017-09-13T05:07:55.537Z,11.9
2017-09-13T05:09:18.009Z,11.99
2017-09-13T05:10:40.367Z,12.02
2017-09-13T05:12:02.873Z,11.91
2017-09-13T05:13:24.742Z,11.9
2017-09-13T05:14:46.255Z,11.95
2017-09-13T05:16:08.440Z,11.98
2017-09-13T05:17:30.268Z,11.98
2017-09-13T05:18:52.132Z,11.91
2017-09-13T05:20:14.270Z,11.91
2017-09-13T05:21:36.430Z,11.95
2017-09-13T05:22:58.412Z,11.95
2017-09-13T05:24:20.872Z,11.91
2017-09-13T05:25:43.119Z,11.98
2017-09-13T05:27:05.195Z,11.96
2017-09-13T05:28:27.019Z,11.94
2017-09-13T05:29:49.163Z,11.94
2017-09-13T05:31:11.752Z,11.91
2017-09-13T05:32:34.515Z,11.96
2017-09-13T05:33:56.993Z,12.04
2017-09-13T05:35:19.121Z,11.96
2017-09-13T05:36:40.602Z,11.98
2017-09-13T05:38:02.683Z,11.98
2017-09-13T05:39:25.142Z,12.04
2017-09-13T05:40:47.287Z,11.98
2017-09-13T05:42:09.090Z,12.12
2017-09-13T05:43:31.322Z,12.12
2017-09-13T05:44:52.502Z,12.05
2017-09-13T05:46:14.936Z,12.13
2017-09-13T05:47:37.091Z,12.14
2017-09-13T05:48:59.807Z,12.1
2017-09-13T05:50:22.098Z,12.09
2017-09-13T05:51:44.369Z,12.2
2017-09-13T05:53:06.973Z,12.19
2017-09-13T05:54:28.915Z,12.17
2017-09-13T05:55:50.406Z,12.17
2017-09-13T05:57:12.913Z,12.23
2017-09-13T05:58:35.403Z,12.23
2017-09-13T05:59:57.914Z,12.27
2017-09-13T06:01:20.368Z,12.2
2017-09-13T06:02:42.684Z,12.29
2017-09-13T06:04:04.491Z,12.27
2017-09-13T06:05:26.565Z,12.31
2017-09-13T06:06:48.066Z,12.35
2017-09-13T06:08:10.212Z,12.31
2017-09-13T06:09:32.352Z,12.45
2017-09-13T06:10:54.147Z,12.34
2017-09-13T06:12:16.383Z,12.45
2017-09-13T06:13:38.536Z,12.37
2017-09-13T06:15:01.021Z,12.45
2017-09-13T06:16:23.142Z,12.41
2017-09-13T06:17:45.736Z,12.39
2017-09-13T06:19:07.892Z,12.32
2017-09-13T06:20:30.044Z,12.38
2017-09-13T06:21:52.539Z,12.47
2017-09-13T06:23:15.027Z,12.47
2017-09-13T06:24:36.875Z,12.41
2017-09-13T06:25:59.018Z,12.53
2017-09-13T06:27:21.461Z,12.53
2017-09-13T06:28:43.290Z,12.52
2017-09-13T06:30:05.527Z,12.57
2017-09-13T06:31:27.004Z,12.59
2017-09-13T06:32:49.762Z,12.59
2017-09-13T06:34:11.239Z,12.68
2017-09-13T06:35:32.403Z,12.64
2017-09-13T06:36:54.214Z,12.72
2017-09-13T06:38:16.937Z,12.77
2017-09-13T06:39:39.092Z,12.89
2017-09-13T06:41:01.280Z,12.97
2017-09-13T06:42:22.893Z,13.08
2017-09-13T06:43:45.330Z,13.05
2017-09-13T06:45:07.640Z,13.14
2017-09-13T06:46:29.854Z,13.2
2017-09-13T06:47:52.333Z,13.14
2017-09-13T06:49:14.729Z,13.23
2017-09-13T06:50:36.236Z,13.19
2017-09-13T06:51:58.683Z,13.3
2017-09-13T06:53:20.504Z,13.36
2017-09-13T06:54:42.592Z,13.32
2017-09-13T06:56:04.785Z,13.33
2017-09-13T06:57:26.605Z,13.22
2017-09-13T06:58:49.056Z,13.25
2017-09-13T07:00:11.543Z,13.29
2017-09-13T07:01:33.680Z,13.32
2017-09-13T07:02:55.503Z,13.25
2017-09-13T07:04:17.942Z,13.28
2017-09-13T07:05:40.037Z,13.38
2017-09-13T07:07:01.861Z,13.33
2017-09-13T07:08:23.751Z,13.42
2017-09-13T07:09:45.255Z,13.41
2017-09-13T07:11:07.385Z,13.36
2017-09-13T07:12:29.847Z,13.45
2017-09-13T07:13:51.432Z,13.51
2017-09-13T07:15:13.890Z,13.55
2017-09-13T07:16:36.165Z,13.82
2017-09-13T07:17:57.999Z,14.15
2017-09-13T07:19:20.139Z,14.25
2017-09-13T07:20:42.583Z,14.2
2017-09-13T07:22:05.400Z,14.18
2017-09-13T07:23:26.912Z,14.2
2017-09-13T07:24:49.410Z,14.14
2017-09-13T07:26:11.663Z,14.09
2017-09-13T07:27:34.138Z,14.06
2017-09-13T07:28:56.279Z,14.09
2017-09-13T07:30:18.538Z,14.04
2017-09-13T07:31:40.033Z,14.18
2017-09-13T07:33:02.553Z,14.25
2017-09-13T07:34:24.208Z,14.25
2017-09-13T07:35:46.672Z,14.18
2017-09-13T07:37:08.502Z,14.28
2017-09-13T07:38:30.565Z,14.33
2017-09-13T07:39:52.739Z,14.47
2017-09-13T07:41:14.230Z,14.73
2017-09-13T07:42:36.445Z,14.94
2017-09-13T07:43:58.847Z,15.03
2017-09-13T07:45:20.341Z,15.25
2017-09-13T07:46:42.263Z,15.54
2017-09-13T07:48:04.192Z,15.8
2017-09-13T07:49:26.305Z,15.92
2017-09-13T07:50:47.793Z,15.68
2017-09-13T07:52:09.929Z,15.57
2017-09-13T07:53:32.068Z,15.34
2017-09-13T07:54:54.842Z,15.27
2017-09-13T07:56:16.032Z,15.14
2017-09-13T07:57:37.230Z,15.27
2017-09-13T07:58:59.782Z,15.39
2017-09-13T08:00:22.237Z,15.59
2017-09-13T08:01:44.403Z,15.78
2017-09-13T08:03:06.885Z,15.97
2017-09-13T08:04:29.017Z,16.24
2017-09-13T08:05:51.411Z,16.56
2017-09-13T08:07:13.989Z,16.53
2017-09-13T08:08:35.818Z,16.42
2017-09-13T08:09:57.633Z,16.3
2017-09-13T08:11:19.812Z,16.23
2017-09-13T08:12:41.661Z,16.14
2017-09-13T08:14:03.543Z,16.07
2017-09-13T08:15:25.682Z,16.23
2017-09-13T08:16:47.544Z,16.34
2017-09-13T08:18:09.668Z,16.3
2017-09-13T08:19:31.183Z,16.23
2017-09-13T08:20:53.021Z,16.08
2017-09-13T08:22:15.353Z,16.07
2017-09-13T08:23:36.987Z,16.2
2017-09-13T08:24:58.851Z,16.46
2017-09-13T08:26:20.702Z,16.43
2017-09-13T08:27:43.101Z,16.42
2017-09-13T08:29:05.376Z,16.31
2017-09-13T08:30:27.509Z,16.43
2017-09-13T08:31:49.395Z,16.27
2017-09-13T08:33:11.789Z,16.2
2017-09-13T08:34:33.981Z,16.11
2017-09-13T08:35:55.805Z,16.09
2017-09-13T08:37:17.683Z,16.17
2017-09-13T08:38:40.422Z,16.48
2017-09-13T08:40:02.243Z,16.63
2017-09-13T08:41:24.064Z,16.76
2017-09-13T08:42:46.543Z,16.96
2017-09-13T08:44:08.612Z,17.04
2017-09-13T08:45:30.468Z,16.98
2017-09-13T08:46:52.629Z,16.98
2017-09-13T08:48:14.884Z,16.98
2017-09-13T08:49:37.064Z,16.98
2017-09-13T08:50:59.242Z,17.12
2017-09-13T08:52:21.408Z,17.15
2017-09-13T08:53:43.335Z,17.33
2017-09-13T08:55:06.056Z,17.44
2017-09-13T08:56:28.237Z,17.49
2017-09-13T08:57:50.372Z,17.72
2017-09-13T08:59:12.582Z,17.59
2017-09-13T09:00:34.364Z,17.86
2017-09-13T09:01:56.210Z,18.14
2017-09-13T09:03:18.064Z,18.32
2017-09-13T09:04:40.185Z,18.54
2017-09-13T09:06:02.901Z,18.7
2017-09-13T09:07:24.406Z,19.08
2017-09-13T09:08:46.573Z,19.16
2017-09-13T09:10:08.717Z,19.14
2017-09-13T09:11:31.136Z,19.43
2017-09-13T09:12:52.673Z,19.62
2017-09-13T09:14:14.525Z,19.32
2017-09-13T09:15:37.002Z,18.9
2017-09-13T09:16:59.090Z,18.75
2017-09-13T09:18:20.906Z,18.6
2017-09-13T09:19:43.446Z,18.7
2017-09-13T09:21:05.605Z,18.57
2017-09-13T09:22:27.353Z,18.47
2017-09-13T09:23:49.515Z,18.29
2017-09-13T09:25:11.334Z,18.45
2017-09-13T09:26:32.503Z,18.26
2017-09-13T09:27:54.945Z,18.2
2017-09-13T09:29:16.135Z,18.12
2017-09-13T09:30:38.416Z,18.07
2017-09-13T09:32:00.254Z,17.77
2017-09-13T09:33:22.437Z,17.71
2017-09-13T09:34:44.927Z,17.62
2017-09-13T09:36:07.064Z,17.48
2017-09-13T09:37:29.263Z,17.46
2017-09-13T09:38:51.807Z,17.68
2017-09-13T09:40:13.675Z,18.02
2017-09-13T09:41:35.884Z,18.18
2017-09-13T09:42:57.826Z,18.15
2017-09-13T09:44:20.215Z,17.89
2017-09-13T09:45:42.376Z,17.54
2017-09-13T09:47:04.513Z,17.3
2017-09-13T09:48:26.404Z,17.04
2017-09-13T09:49:48.828Z,16.75
2017-09-13T09:51:11.293Z,16.85
2017-09-13T09:52:33.454Z,16.83
2017-09-13T09:53:55.934Z,16.91
2017-09-13T09:55:18.038Z,17.06
2017-09-13T09:56:39.538Z,17.34
2017-09-13T09:58:01.049Z,17.52
2017-09-13T09:59:22.544Z,17.52
2017-09-13T10:00:44.604Z,17.44
2017-09-13T10:02:06.437Z,17.34
2017-09-13T10:03:28.583Z,17.36
2017-09-13T10:04:50.516Z,17.33
2017-09-13T10:06:13.345Z,17.36
2017-09-13T10:07:35.504Z,17.44
2017-09-13T10:08:57.694Z,17.48
2017-09-13T10:10:19.547Z,17.56
2017-09-13T10:11:42.414Z,17.43
2017-09-13T10:13:04.564Z,17.51
2017-09-13T10:14:26.371Z,17.44
2017-09-13T10:15:48.522Z,17.71
2017-09-13T10:17:11.024Z,18.18
2017-09-13T10:18:33.518Z,18.32
2017-09-13T10:19:55.693Z,18.33
2017-09-13T10:21:17.574Z,18.18
2017-09-13T10:22:40.366Z,18.05
2017-09-13T10:24:02.294Z,18
2017-09-13T10:25:24.744Z,17.9
2017-09-13T10:26:46.946Z,17.9
2017-09-13T10:28:09.022Z,17.9
2017-09-13T10:29:30.546Z,17.79
2017-09-13T10:30:52.385Z,17.77
2017-09-13T10:32:14.911Z,18.02
2017-09-13T10:33:36.830Z,18.08
2017-09-13T10:34:59.071Z,18.2
2017-09-13T10:36:20.913Z,18.54
2017-09-13T10:37:42.874Z,18.82
2017-09-13T10:39:05.361Z,18.94
2017-09-13T10:40:27.574Z,19
2017-09-13T10:41:49.154Z,18.8
2017-09-13T10:43:11.314Z,18.78
2017-09-13T10:44:33.736Z,18.65
2017-09-13T10:45:56.291Z,18.58
2017-09-13T10:47:18.140Z,18.5
2017-09-13T10:48:40.295Z,18.37
2017-09-13T10:50:02.464Z,18.17
2017-09-13T10:51:24.289Z,17.79
2017-09-13T10:52:46.465Z,17.55
2017-09-13T10:54:07.976Z,17.33
2017-09-13T10:55:30.507Z,17.12
2017-09-13T10:56:52.993Z,16.98
2017-09-13T10:58:14.865Z,16.68
2017-09-13T10:59:36.704Z,16.42
2017-09-13T11:00:59.242Z,16.34
2017-09-13T11:02:21.433Z,16.42
2017-09-13T11:03:43.591Z,16.41
2017-09-13T11:05:06.083Z,16.39
2017-09-13T11:06:28.681Z,16.33
2017-09-13T11:07:50.828Z,16.07
2017-09-13T11:09:12.984Z,16.2
2017-09-13T11:10:34.829Z,16.25
2017-09-13T11:11:57.015Z,16.31
2017-09-13T11:13:18.837Z,16.24
2017-09-13T11:14:40.660Z,16.39
2017-09-13T11:16:03.134Z,16.45
2017-09-13T11:17:25.623Z,16.48
2017-09-13T11:18:46.794Z,16.45
2017-09-13T11:20:08.949Z,16.56
2017-09-13T11:21:31.105Z,16.76
2017-09-13T11:22:53.908Z,16.91
2017-09-13T11:24:15.817Z,17.07
2017-09-13T11:25:37.711Z,17.01
2017-09-13T11:27:00.198Z,17.12
2017-09-13T11:28:22.751Z,17.21
2017-09-13T11:29:45.218Z,17.23
2017-09-13T11:31:07.685Z,17.3
2017-09-13T11:32:29.194Z,17.19
2017-09-13T11:33:51.732Z,17.25
2017-09-13T11:35:14.194Z,17.3
2017-09-13T11:36:36.364Z,17.33
2017-09-13T11:37:58.513Z,17.33
2017-09-13T11:39:20.902Z,17.38
2017-09-13T11:40:42.415Z,17.46
2017-09-13T11:42:04.581Z,17.34
2017-09-13T11:43:26.736Z,17.18
2017-09-13T11:44:49.227Z,17.03
2017-09-13T11:46:11.374Z,16.93
2017-09-13T11:47:33.844Z,16.93
2017-09-13T11:48:56.310Z,17.03
2017-09-13T11:50:18.513Z,17.23
2017-09-13T11:51:40.986Z,17.37
2017-09-13T11:53:02.811Z,17.54
2017-09-13T11:54:24.732Z,17.54
2017-09-13T11:55:46.856Z,17.54
2017-09-13T11:57:09.453Z,17.62
2017-09-13T11:58:31.903Z,17.64
2017-09-13T11:59:53.803Z,17.71
2017-09-13T12:01:16.183Z,17.79
2017-09-13T12:02:38.374Z,17.7
2017-09-13T12:04:00.186Z,17.77
2017-09-13T12:05:22.046Z,17.99
2017-09-13T12:06:44.873Z,18.15
2017-09-13T12:08:07.032Z,18.3
2017-09-13T12:09:29.165Z,18.54
2017-09-13T12:10:51.317Z,18.55
2017-09-13T12:12:13.503Z,18.57
2017-09-13T12:13:35.978Z,18.6
2017-09-13T12:14:57.494Z,18.87
2017-09-13T12:16:19.306Z,19.07
2017-09-13T12:17:42.140Z,19.1
2017-09-13T12:19:03.654Z,19.04
2017-09-13T12:20:25.502Z,18.99
2017-09-13T12:21:47.653Z,19.08
2017-09-13T12:23:09.722Z,18.78
2017-09-13T12:24:32.194Z,18.85
2017-09-13T12:25:54.344Z,18.8
2017-09-13T12:27:16.813Z,18.58
2017-09-13T12:28:39.313Z,18.52
2017-09-13T12:30:01.573Z,18.58
2017-09-13T12:31:24.058Z,18.81
2017-09-13T12:32:45.243Z,18.78
2017-09-13T12:34:07.054Z,18.7
2017-09-13T12:35:29.248Z,18.55
2017-09-13T12:36:50.877Z,18.51
2017-09-13T12:38:13.410Z,18.63
2017-09-13T12:39:35.814Z,18.54
2017-09-13T12:40:58.301Z,18.6
2017-09-13T12:42:20.245Z,18.65
2017-09-13T12:43:42.492Z,18.63
2017-09-13T12:45:04.998Z,18.5
2017-09-13T12:46:27.614Z,18.29
2017-09-13T12:47:49.774Z,18.14
2017-09-13T12:49:11.004Z,17.9
2017-09-13T12:50:33.827Z,17.54
2017-09-13T12:51:55.044Z,17.34
2017-09-13T12:53:17.515Z,17.22
2017-09-13T12:54:39.657Z,17.14
2017-09-13T12:56:01.834Z,17
2017-09-13T12:57:23.988Z,16.85
2017-09-13T12:58:46.473Z,16.68
2017-09-13T13:00:08.994Z,16.67
2017-09-13T13:01:31.830Z,16.89
2017-09-13T13:02:53.986Z,17.06
2017-09-13T13:04:15.820Z,17.21
2017-09-13T13:05:37.765Z,17.37
2017-09-13T13:06:59.987Z,17.34
2017-09-13T13:08:21.514Z,17.31
2017-09-13T13:09:43.377Z,17.11
2017-09-13T13:11:05.533Z,16.88
2017-09-13T13:12:28.044Z,16.86
2017-09-13T13:13:50.193Z,17.11
2017-09-13T13:15:12.694Z,17.31
2017-09-13T13:16:34.831Z,17.41
2017-09-13T13:17:57.554Z,17.46
2017-09-13T13:19:20.023Z,17.46
2017-09-13T13:20:41.851Z,17.36
2017-09-13T13:22:04.082Z,17.3
2017-09-13T13:23:26.255Z,17.34
2017-09-13T13:24:48.485Z,17.43
2017-09-13T13:26:10.783Z,17.68
2017-09-13T13:27:32.738Z,17.59
2017-09-13T13:28:55.243Z,17.55
2017-09-13T13:30:18.004Z,17.58
2017-09-13T13:31:39.193Z,17.48
2017-09-13T13:33:01.363Z,17.52
2017-09-13T13:34:23.493Z,17.3
2017-09-13T13:35:45.639Z,17.56
2017-09-13T13:37:07.143Z,18.07
2017-09-13T13:38:28.632Z,18.05
2017-09-13T13:39:51.109Z,18.05
2017-09-13T13:41:13.268Z,18.02
2017-09-13T13:42:35.094Z,17.95
2017-09-13T13:43:57.254Z,17.81
2017-09-13T13:45:19.983Z,17.95
2017-09-13T13:46:41.827Z,17.93
2017-09-13T13:48:03.673Z,18.07
2017-09-13T13:49:25.533Z,17.81
2017-09-13T13:50:48.283Z,17.78
2017-09-13T13:52:10.007Z,17.82
2017-09-13T13:53:32.182Z,17.78
2017-09-13T13:54:54.060Z,17.55
2017-09-13T13:56:16.391Z,17.28
2017-09-13T13:57:38.632Z,17.28
2017-09-13T13:59:01.122Z,17.23
2017-09-13T14:00:22.972Z,17.19
2017-09-13T14:01:45.469Z,17.14
2017-09-13T14:03:07.637Z,17
2017-09-13T14:04:29.783Z,16.88
2017-09-13T14:05:52.269Z,16.94
2017-09-13T14:07:14.846Z,16.68
2017-09-13T14:08:37.150Z,16.39
2017-09-13T14:09:59.312Z,16.42
2017-09-13T14:11:21.858Z,16.42
2017-09-13T14:12:44.235Z,16.45
2017-09-13T14:14:06.544Z,16.49
2017-09-13T14:15:28.678Z,16.64
2017-09-13T14:16:50.515Z,16.79
2017-09-13T14:18:12.890Z,16.93
2017-09-13T14:19:35.583Z,17
2017-09-13T14:20:57.818Z,17.06
2017-09-13T14:22:20.300Z,17.07
2017-09-13T14:23:42.825Z,17.03
2017-09-13T14:25:04.653Z,17
2017-09-13T14:26:27.143Z,17
2017-09-13T14:27:49.326Z,17.03
2017-09-13T14:29:11.833Z,17.07
2017-09-13T14:30:34.298Z,17.12
2017-09-13T14:31:56.775Z,17.28
2017-09-13T14:33:19.232Z,17.36
2017-09-13T14:34:41.307Z,17.49
2017-09-13T14:36:03.574Z,17.51
2017-09-13T14:37:25.766Z,17.55
2017-09-13T14:38:47.923Z,17.46
2017-09-13T14:40:10.851Z,17.31
2017-09-13T14:41:33.314Z,17.25
2017-09-13T14:42:55.923Z,17.23
2017-09-13T14:44:18.083Z,17.41
2017-09-13T14:45:40.582Z,17.15
2017-09-13T14:47:02.786Z,17.06
2017-09-13T14:48:25.019Z,17.06
2017-09-13T14:49:47.165Z,17.04
2017-09-13T14:51:09.539Z,16.98
2017-09-13T14:52:32.097Z,17.01
2017-09-13T14:53:54.637Z,17.01
2017-09-13T14:55:16.795Z,17.11
2017-09-13T14:56:39.635Z,17.37
2017-09-13T14:58:02.243Z,17.31
2017-09-13T14:59:24.406Z,17.33
2017-09-13T15:00:46.633Z,17.46
2017-09-13T15:02:09.504Z,17.48
2017-09-13T15:03:32.096Z,17.46
2017-09-13T15:04:54.017Z,17.51
2017-09-13T15:06:15.857Z,17.51
2017-09-13T15:07:38.795Z,17.46
2017-09-13T15:09:01.404Z,17.38
2017-09-13T15:10:23.876Z,17.23
2017-09-13T15:11:46.035Z,17.19
2017-09-13T15:13:08.854Z,17.08
2017-09-13T15:14:31.330Z,17.06
2017-09-13T15:15:53.474Z,17.01
2017-09-13T15:17:15.643Z,16.96
2017-09-13T15:18:38.389Z,17
2017-09-13T15:20:00.247Z,16.79
2017-09-13T15:21:22.715Z,16.78
2017-09-13T15:22:45.074Z,16.63
2017-09-13T15:24:07.896Z,16.52
2017-09-13T15:25:30.093Z,16.48
2017-09-13T15:26:52.223Z,16.48
2017-09-13T15:28:14.934Z,16.3
2017-09-13T15:29:37.794Z,16.2
2017-09-13T15:30:59.965Z,16.05
2017-09-13T15:32:22.272Z,15.87
2017-09-13T15:33:44.731Z,15.68
2017-09-13T15:35:06.865Z,15.68
2017-09-13T15:36:29.079Z,15.44
2017-09-13T15:37:51.620Z,15.35
2017-09-13T15:39:14.091Z,15.16
2017-09-13T15:40:36.317Z,14.99
2017-09-13T15:41:58.789Z,14.96
2017-09-13T15:43:21.281Z,14.77
2017-09-13T15:44:43.874Z,14.6
2017-09-13T15:46:06.673Z,14.39
2017-09-13T15:47:28.889Z,14.25
2017-09-13T15:48:51.099Z,14.18
2017-09-13T15:50:13.575Z,14.21
2017-09-13T15:51:36.414Z,14.12
2017-09-13T15:52:58.894Z,14.06
2017-09-13T15:54:21.577Z,14.06
2017-09-13T15:55:44.080Z,14.02
2017-09-13T15:57:06.923Z,14.07
2017-09-13T15:58:28.761Z,14.06
2017-09-13T15:59:50.618Z,14.18
2017-09-13T16:01:12.874Z,14.18
2017-09-13T16:02:35.371Z,14.21
2017-09-13T16:03:57.551Z,14.2
2017-09-13T16:05:19.704Z,14.28
2017-09-13T16:06:41.861Z,14.29
2017-09-13T16:08:04.383Z,14.27
2017-09-13T16:09:26.556Z,14.09
2017-09-13T16:10:48.714Z,13.92
2017-09-13T16:12:10.933Z,13.78
2017-09-13T16:13:33.437Z,13.77
2017-09-13T16:14:56.013Z,13.73
2017-09-13T16:16:17.843Z,13.81
2017-09-13T16:17:39.361Z,13.87
2017-09-13T16:19:01.934Z,13.91
2017-09-13T16:20:24.407Z,13.96
2017-09-13T16:21:46.901Z,13.97
2017-09-13T16:23:08.772Z,13.99
2017-09-13T16:24:30.959Z,14.07
2017-09-13T16:25:53.443Z,14.07
2017-09-13T16:27:15.263Z,14.18
2017-09-13T16:28:36.783Z,14.21
2017-09-13T16:29:59.244Z,14.27
2017-09-13T16:31:21.765Z,14.36
2017-09-13T16:32:43.906Z,14.46
2017-09-13T16:34:06.405Z,14.6
2017-09-13T16:35:28.948Z,14.6
2017-09-13T16:36:51.424Z,14.58
2017-09-13T16:38:13.563Z,14.57
2017-09-13T16:39:35.717Z,14.68
2017-09-13T16:40:58.199Z,14.77
2017-09-13T16:42:20.363Z,14.72
2017-09-13T16:43:42.844Z,14.73
2017-09-13T16:45:05.334Z,14.64
2017-09-13T16:46:27.835Z,14.81
2017-09-13T16:47:49.663Z,14.89
2017-09-13T16:49:12.184Z,14.95
2017-09-13T16:50:34.361Z,15.06
2017-09-13T16:51:57.196Z,15.13
2017-09-13T16:53:19.024Z,15.23
2017-09-13T16:54:41.570Z,15.39
2017-09-13T16:56:03.722Z,15.41
2017-09-13T16:57:26.664Z,15.38
2017-09-13T16:58:48.785Z,15.23
2017-09-13T17:00:11.073Z,15.14
2017-09-13T17:01:32.591Z,15.14
2017-09-13T17:02:55.359Z,15.16
2017-09-13T17:04:17.193Z,15.16
2017-09-13T17:05:39.654Z,15.23
2017-09-13T17:07:02.172Z,15.29
2017-09-13T17:08:24.705Z,15.35
2017-09-13T17:09:47.185Z,15.19
2017-09-13T17:11:09.658Z,15.16
2017-09-13T17:12:31.595Z,15.03
2017-09-13T17:13:54.111Z,14.92
2017-09-13T17:15:16.064Z,14.98
2017-09-13T17:16:38.214Z,14.86
2017-09-13T17:18:00.735Z,14.84
2017-09-13T17:19:23.244Z,14.81
2017-09-13T17:20:45.094Z,14.73
2017-09-13T17:22:07.608Z,14.6
2017-09-13T17:23:29.786Z,14.39
2017-09-13T17:24:52.666Z,14.42
2017-09-13T17:26:15.164Z,14.25
2017-09-13T17:27:37.314Z,14.32
2017-09-13T17:28:59.800Z,14.35
2017-09-13T17:30:22.233Z,14.37
2017-09-13T17:31:44.063Z,14.36
2017-09-13T17:33:05.923Z,14.25
2017-09-13T17:34:28.405Z,14.18
2017-09-13T17:35:51.283Z,14.14
2017-09-13T17:37:13.782Z,14.14
2017-09-13T17:38:36.094Z,14.12
2017-09-13T17:39:58.604Z,14.17
2017-09-13T17:41:21.736Z,14.2